Time;durP1;ratioP1;P1;durP2;ratioP2;P2;SDS_P1;SDS_P2;PMS_P1;PMS_P2;Temp;Humidity;BMP_temperature;BMP_pressure;BME280_temperature;BME280_humidity;BME280_pressure;Samples;Min_cycle;Max_cycle;Signal;HPM_P1;HPM_P2
2021/04/19 00:01:31;;;;;;;16.15;10.48;;;;;;;8.18;78.95;101573.28;5040764;28;20099;-82
2021/04/19 00:03:57;;;;;;;15.27;10.10;;;;;;;8.11;78.97;101577.44;5026625;28;20103;-83
2021/04/19 00:06:22;;;;;;;15.82;10.52;;;;;;;8.01;79.37;101573.88;5048111;28;20053;-83
2021/04/19 00:08:48;;;;;;;15.98;11.52;;;;;;;7.94;79.83;101572.66;5052702;28;20044;-86
2021/04/19 00:11:13;;;;;;;16.17;10.90;;;;;;;7.85;80.36;101567.13;5033578;28;20060;-78
2021/04/19 00:13:39;;;;;;;17.80;11.38;;;;;;;7.85;80.21;101563.59;5053201;28;20404;-79
2021/04/19 00:16:05;;;;;;;17.20;10.93;;;;;;;7.82;80.46;101563.84;5027937;28;20045;-83
2021/04/19 00:18:32;;;;;;;16.40;11.15;;;;;;;7.74;80.29;101561.84;5048498;28;20478;-84
2021/04/19 00:21:00;;;;;;;17.80;10.75;;;;;;;7.69;80.70;101566.69;5034575;28;20048;-83
2021/04/19 00:23:25;;;;;;;21.48;11.93;;;;;;;7.61;80.93;101566.47;5026483;28;20485;-78
2021/04/19 00:25:51;;;;;;;16.85;11.95;;;;;;;7.54;81.12;101573.28;5017906;28;20053;-82
2021/04/19 00:28:17;;;;;;;19.92;12.35;;;;;;;7.47;81.64;101563.09;5047949;28;20535;-79
2021/04/19 00:30:43;;;;;;;16.38;10.93;;;;;;;7.43;81.88;101567.00;5049815;28;20045;-84
2021/04/19 00:33:10;;;;;;;16.63;11.10;;;;;;;7.40;82.40;101569.94;5042589;28;20131;-83
2021/04/19 00:35:37;;;;;;;18.63;11.82;;;;;;;7.38;82.30;101566.53;5045316;28;20073;-81
2021/04/19 00:38:02;;;;;;;18.92;11.60;;;;;;;7.36;82.49;101567.63;5014992;28;20421;-79
2021/04/19 00:40:30;;;;;;;17.80;11.82;;;;;;;7.34;82.51;101565.09;5031089;28;20041;-85
2021/04/19 00:42:57;;;;;;;16.88;11.35;;;;;;;7.28;82.76;101562.94;5012512;28;20055;-83
2021/04/19 00:45:23;;;;;;;18.67;11.80;;;;;;;7.25;82.92;101563.19;5032743;28;20461;-83
2021/04/19 00:47:49;;;;;;;18.00;11.88;;;;;;;7.24;83.12;101556.13;5026955;28;20129;-84
2021/04/19 00:50:24;;;;;;;18.83;12.55;;;;;;;7.22;83.19;101550.91;5030132;28;20727;-80
2021/04/19 00:52:52;;;;;;;17.98;12.25;;;;;;;7.21;83.12;101543.03;5043192;28;20143;-81
2021/04/19 00:55:23;;;;;;;19.90;12.82;;;;;;;7.17;83.08;101544.25;5043389;28;20041;-82
2021/04/19 00:57:50;;;;;;;20.50;12.55;;;;;;;7.12;83.26;101541.09;5034594;28;20064;-77
2021/04/19 01:00:22;;;;;;;17.67;11.98;;;;;;;7.08;83.50;101542.31;5037580;28;20032;-80
2021/04/19 01:02:47;;;;;;;17.13;12.43;;;;;;;7.04;83.59;101547.03;5048637;28;20064;-82
2021/04/19 01:05:16;;;;;;;21.13;12.80;;;;;;;7.00;83.89;101546.44;5034824;28;20068;-79
2021/04/19 01:07:42;;;;;;;22.63;12.80;;;;;;;6.98;84.04;101548.38;5046770;28;20498;-80
2021/04/19 01:10:08;;;;;;;17.38;13.18;;;;;;;6.95;84.35;101556.63;5029301;28;20051;-80
2021/04/19 01:12:33;;;;;;;20.50;13.98;;;;;;;6.90;84.64;101560.63;5049020;28;20075;-81
2021/04/19 01:14:59;;;;;;;19.25;13.35;;;;;;;6.88;84.76;101558.09;5040769;28;20493;-80
2021/04/19 01:17:25;;;;;;;18.13;12.95;;;;;;;6.84;85.38;101553.97;5046399;28;20056;-83
2021/04/19 01:19:50;;;;;;;18.75;13.27;;;;;;;6.84;85.60;101559.31;5044519;28;20124;-83
2021/04/19 01:22:16;;;;;;;22.60;13.82;;;;;;;6.81;85.74;101556.88;5051149;28;20083;-79
2021/04/19 01:24:42;;;;;;;20.88;13.77;;;;;;;6.82;85.91;101563.94;5053571;28;20045;-80
2021/04/19 01:27:07;;;;;;;20.88;13.25;;;;;;;6.81;85.84;101566.72;5036168;28;20053;-84
2021/04/19 01:29:33;;;;;;;22.85;14.95;;;;;;;6.81;86.55;101567.56;5052197;28;20045;-80
2021/04/19 01:31:59;;;;;;;23.38;14.38;;;;;;;6.83;86.31;101557.63;5029863;28;20041;-78
2021/04/19 01:34:28;;;;;;;19.65;13.80;;;;;;;6.88;86.16;101555.44;5047925;28;20041;-85
2021/04/19 01:36:54;;;;;;;22.88;14.52;;;;;;;6.92;86.18;101570.22;5030464;28;20671;-83
2021/04/19 01:39:21;;;;;;;21.95;14.55;;;;;;;6.94;86.12;101562.94;5019403;28;20049;-81
2021/04/19 01:41:47;;;;;;;20.20;14.15;;;;;;;6.98;85.99;101553.72;5043276;28;20045;-85
2021/04/19 01:44:13;;;;;;;20.48;14.68;;;;;;;7.04;85.76;101562.22;5047628;28;20130;-81
2021/04/19 01:46:39;;;;;;;22.33;14.88;;;;;;;7.04;85.92;101562.22;5032768;28;20048;-82
2021/04/19 01:49:18;;;;;;;22.50;15.18;;;;;;;7.06;85.76;101565.63;5036067;28;20056;-83
2021/04/19 01:51:45;;;;;;;19.65;14.95;;;;;;;7.08;86.15;101553.84;5010594;28;20040;-83
2021/04/19 01:54:11;;;;;;;21.48;15.38;;;;;;;7.11;85.26;101555.44;5053099;28;20048;-81
2021/04/19 01:56:37;;;;;;;22.73;14.85;;;;;;;7.08;85.52;101563.66;5050696;28;20044;-83
2021/04/19 01:59:04;;;;;;;19.75;14.52;;;;;;;7.13;85.48;101556.13;5052074;28;20532;-82
2021/04/19 02:01:33;;;;;;;24.98;14.90;;;;;;;7.15;85.70;101547.03;5039036;28;20044;-81
2021/04/19 02:04:26;;;;;;;25.23;15.40;;;;;;;7.15;85.99;101548.84;5051902;28;20041;-81
2021/04/19 02:07:02;;;;;;;22.17;15.40;;;;;;;7.15;86.02;101548.84;5044023;28;20042;-82
2021/04/19 02:09:35;;;;;;;24.58;15.00;;;;;;;7.14;85.45;101542.69;5031346;28;20402;-81
2021/04/19 02:12:32;;;;;;;24.90;15.35;;;;;;;7.16;85.95;101538.06;5035888;28;20386;-84
2021/04/19 02:15:11;;;;;;;21.67;14.73;;;;;;;7.17;86.24;101537.09;5012685;28;20554;-81
2021/04/19 02:17:58;;;;;;;23.33;15.23;;;;;;;7.17;86.15;101541.59;5047089;28;20055;-81
2021/04/19 02:20:50;;;;;;;24.15;15.30;;;;;;;7.17;86.15;101545.09;5044333;28;20025;-81
2021/04/19 02:23:21;;;;;;;23.38;16.15;;;;;;;7.16;87.05;101550.53;5050445;28;20102;-80
2021/04/19 02:25:49;;;;;;;21.20;15.88;;;;;;;7.15;86.87;101546.19;5052045;28;20052;-81
2021/04/19 02:28:35;;;;;;;22.85;14.93;;;;;;;7.16;87.62;101551.41;5042202;28;20459;-85
2021/04/19 02:31:08;;;;;;;27.15;16.67;;;;;;;7.17;87.63;101549.59;5036557;28;20068;-80
2021/04/19 02:33:40;;;;;;;24.13;17.60;;;;;;;7.17;88.61;101552.25;5027867;28;20041;-83
2021/04/19 02:36:12;;;;;;;24.95;17.45;;;;;;;7.17;89.08;101552.25;5028814;28;20041;-79
2021/04/19 02:38:40;;;;;;;24.55;18.13;;;;;;;7.22;88.79;101555.38;5020905;28;20065;-80
2021/04/19 02:41:08;;;;;;;27.42;18.92;;;;;;;7.24;89.84;101558.78;5027898;28;20110;-82
2021/04/19 02:43:35;;;;;;;27.70;19.13;;;;;;;7.20;91.33;101554.69;5055470;28;20094;-82
2021/04/19 02:46:03;;;;;;;31.77;19.52;;;;;;;7.12;93.78;101554.44;5032233;28;20080;-85
2021/04/19 02:48:31;;;;;;;26.08;20.13;;;;;;;7.11;94.44;101542.09;5026802;28;20053;-82
2021/04/19 02:51:00;;;;;;;33.38;22.73;;;;;;;7.12;93.83;101560.63;5038845;28;20045;-83
2021/04/19 02:53:34;;;;;;;43.60;27.10;;;;;;;7.11;95.34;101552.75;5027990;28;20096;-82
2021/04/19 02:56:04;;;;;;;40.13;27.40;;;;;;;7.09;94.99;101538.69;5044418;28;20040;-83
2021/04/19 02:58:46;;;;;;;42.25;29.73;;;;;;;7.12;97.00;101549.94;5029784;28;20091;-83
2021/04/19 03:01:32;;;;;;;46.55;31.73;;;;;;;7.05;99.95;101537.22;5042433;28;20040;-84
2021/04/19 03:04:05;;;;;;;51.05;34.95;;;;;;;7.01;99.98;101536.63;5025129;28;20127;-84
2021/04/19 03:06:38;;;;;;;50.75;33.38;;;;;;;7.00;99.94;101537.59;5041303;28;20046;-82
2021/04/19 03:09:07;;;;;;;52.25;33.88;;;;;;;6.97;100.00;101546.69;5027716;28;20524;-83
2021/04/19 03:12:02;;;;;;;53.85;38.72;;;;;;;6.95;100.00;101543.28;5045763;28;20052;-83
2021/04/19 03:14:42;;;;;;;51.72;37.88;;;;;;;6.87;100.00;101535.03;5024458;28;20045;-84
2021/04/19 03:17:12;;;;;;;57.63;39.42;;;;;;;6.91;100.00;101544.53;5051047;28;20132;-85
2021/04/19 03:19:46;;;;;;;61.78;40.28;;;;;;;6.86;100.00;101533.34;5024685;28;20047;-84
2021/04/19 03:22:14;;;;;;;65.20;43.30;;;;;;;6.92;100.00;101529.34;5045115;28;20666;-84
2021/04/19 03:24:41;;;;;;;62.70;43.30;;;;;;;6.96;100.00;101536.13;5024609;28;20051;-81
2021/04/19 03:27:08;;;;;;;60.35;42.65;;;;;;;7.00;100.00;101534.94;5032771;28;20049;-81
2021/04/19 03:29:38;;;;;;;61.67;41.90;;;;;;;6.93;100.00;101523.91;5047116;28;20040;-83
2021/04/19 03:32:11;;;;;;;61.92;43.70;;;;;;;6.96;100.00;101523.66;5016561;28;20037;-82
2021/04/19 03:34:38;;;;;;;63.88;43.00;;;;;;;6.95;100.00;101531.78;5028116;28;20063;-82
2021/04/19 03:37:08;;;;;;;63.47;44.20;;;;;;;7.01;100.00;101520.59;5022388;28;20048;-82
2021/04/19 03:39:35;;;;;;;68.35;42.13;;;;;;;6.90;100.00;101512.59;5049838;28;20045;-82
2021/04/19 03:42:02;;;;;;;69.18;45.38;;;;;;;6.89;100.00;101510.91;5033595;28;20072;-82
2021/04/19 03:44:30;;;;;;;64.82;45.78;;;;;;;6.98;100.00;101504.84;5031835;28;20079;-84
2021/04/19 03:46:57;;;;;;;63.65;44.58;;;;;;;6.99;100.00;101503.84;5046246;28;20040;-83
2021/04/19 03:49:36;;;;;;;67.25;45.67;;;;;;;6.97;100.00;101504.00;5039339;28;20036;-84
2021/04/19 03:52:04;;;;;;;;;;;;;;;7.01;100.00;101510.78;5046172;28;20040;-81
2021/04/19 03:54:34;;;;;;;73.78;49.28;;;;;;;6.95;100.00;101513.94;5026448;28;19916;-84
2021/04/19 03:57:03;;;;;;;65.88;43.65;;;;;;;6.92;100.00;101510.69;5052049;28;20046;-81
2021/04/19 03:59:33;;;;;;;66.90;44.92;;;;;;;6.91;100.00;101504.50;5045957;28;20390;-83
2021/04/19 04:02:03;;;;;;;66.28;45.47;;;;;;;6.89;100.00;101501.09;5038403;28;20376;-83
2021/04/19 04:04:30;;;;;;;65.68;45.67;;;;;;;6.84;100.00;101502.44;5043110;28;20041;-83
2021/04/19 04:06:58;;;;;;;64.93;45.83;;;;;;;6.85;100.00;101509.44;5044596;28;20053;-84
2021/04/19 04:09:24;;;;;;;62.85;44.05;;;;;;;6.84;100.00;101505.94;5048884;28;20041;-82
2021/04/19 04:11:50;;;;;;;62.47;43.55;;;;;;;6.85;100.00;101514.78;5031960;28;20039;-86
2021/04/19 04:14:15;;;;;;;62.15;44.45;;;;;;;6.86;100.00;101512.00;5030321;28;20753;-83
2021/04/19 04:16:44;;;;;;;67.68;45.22;;;;;;;6.85;100.00;101515.66;5026238;28;20056;-83
2021/04/19 04:19:10;;;;;;;60.10;43.63;;;;;;;6.87;100.00;101513.69;5025117;28;20037;-82
2021/04/19 04:21:37;;;;;;;65.63;47.15;;;;;;;6.89;100.00;101526.94;5032936;28;20537;-81
2021/04/19 04:24:04;;;;;;;67.60;48.85;;;;;;;6.93;100.00;101521.25;5034386;28;20045;-81
2021/04/19 04:26:31;;;;;;;73.70;50.90;;;;;;;6.92;100.00;101521.34;5037589;28;20041;-85
2021/04/19 04:28:59;;;;;;;69.28;49.30;;;;;;;6.92;100.00;101522.19;5026365;28;20473;-79
2021/04/19 04:31:24;;;;;;;73.85;49.30;;;;;;;6.89;100.00;101519.78;5040449;28;20049;-82
2021/04/19 04:33:50;;;;;;;71.45;49.20;;;;;;;6.87;100.00;101524.38;5041319;28;20032;-82
2021/04/19 04:36:17;;;;;;;69.32;48.47;;;;;;;6.89;100.00;101537.59;5024676;28;20045;-83
2021/04/19 04:38:43;;;;;;;74.20;50.92;;;;;;;6.91;100.00;101541.84;5025626;28;20402;-85
2021/04/19 04:41:11;;;;;;;77.47;53.63;;;;;;;6.98;100.00;101532.38;5001741;28;20379;-81
2021/04/19 04:43:39;;;;;;;76.00;53.25;;;;;;;6.98;100.00;101540.38;5034663;28;20045;-84
2021/04/19 04:46:16;;;;;;;85.78;55.78;;;;;;;7.00;100.00;101534.94;5044443;28;20044;-83
2021/04/19 04:49:00;;;;;;;78.78;54.42;;;;;;;7.03;100.00;101534.69;5039080;28;20742;-85
2021/04/19 04:51:30;;;;;;;79.72;57.22;;;;;;;7.04;100.00;101539.03;5023265;28;20119;-83
2021/04/19 04:54:01;;;;;;;88.68;60.65;;;;;;;7.08;100.00;101537.84;5025727;28;20041;-82
2021/04/19 04:56:31;;;;;;;90.80;61.50;;;;;;;7.08;100.00;101535.16;5047088;28;20073;-84
2021/04/19 04:58:57;;;;;;;87.72;60.03;;;;;;;7.11;100.00;101537.59;5047352;28;20434;-81
2021/04/19 05:01:27;;;;;;;86.32;56.95;;;;;;;7.12;100.00;101544.63;5034220;28;20153;-83
2021/04/19 05:03:55;;;;;;;;;;;;;;;7.10;100.00;101533.19;5032337;28;20484;-81
2021/04/19 05:06:21;;;;;;;95.72;71.18;;;;;;;7.05;100.00;101537.22;5046405;28;19940;-83
2021/04/19 05:08:49;;;;;;;90.35;64.35;;;;;;;7.03;100.00;101534.69;5042618;28;20401;-82
2021/04/19 05:11:15;;;;;;;87.05;63.13;;;;;;;7.05;100.00;101542.56;5040482;28;20044;-82
2021/04/19 05:13:42;;;;;;;89.63;59.90;;;;;;;7.05;100.00;101542.56;5030010;28;20448;-83
2021/04/19 05:16:07;;;;;;;98.18;64.72;;;;;;;7.06;100.00;101545.09;5037029;28;20112;-83
2021/04/19 05:18:35;;;;;;;98.88;67.07;;;;;;;7.09;100.00;101544.03;5027916;28;20049;-83
2021/04/19 05:21:03;;;;;;;94.63;64.35;;;;;;;7.16;100.00;101545.22;5035928;28;20033;-80
2021/04/19 05:23:29;;;;;;;105.18;69.35;;;;;;;7.17;100.00;101537.09;5018773;28;20041;-80
2021/04/19 05:25:55;;;;;;;108.68;66.60;;;;;;;7.21;100.00;101537.69;5029117;28;20068;-85
2021/04/19 05:28:20;;;;;;;109.60;68.82;;;;;;;7.21;100.00;101535.00;5044650;28;20045;-82
2021/04/19 05:30:49;;;;;;;109.95;71.75;;;;;;;7.24;100.00;101540.94;5011901;28;20052;-81
2021/04/19 05:33:14;;;;;;;128.90;74.10;;;;;;;7.30;100.00;101528.91;5042805;28;20073;-81
2021/04/19 05:35:40;;;;;;;108.05;69.53;;;;;;;7.32;100.00;101532.31;5009068;28;20065;-81
2021/04/19 05:38:06;;;;;;;123.93;75.78;;;;;;;7.35;100.00;101533.91;5009944;28;20203;-82
2021/04/19 05:40:35;;;;;;;124.95;74.45;;;;;;;7.39;100.00;101538.00;5026563;28;20037;-83
2021/04/19 05:43:05;;;;;;;118.13;72.93;;;;;;;7.38;100.00;101539.81;5028259;28;20715;-83
2021/04/19 05:45:31;;;;;;;136.27;75.57;;;;;;;7.45;100.00;101538.38;5052239;28;20049;-82
2021/04/19 05:47:59;;;;;;;127.35;74.75;;;;;;;7.50;100.00;101539.81;5024172;28;20073;-81
2021/04/19 05:50:26;;;;;;;125.03;72.75;;;;;;;7.51;100.00;101554.84;5024344;28;20048;-81
2021/04/19 05:52:57;;;;;;;146.00;79.57;;;;;;;7.56;100.00;101558.00;5029882;28;20043;-83
2021/04/19 05:55:29;;;;;;;106.97;67.10;;;;;;;7.57;100.00;101554.38;5045777;28;20594;-82
2021/04/19 05:58:31;;;;;;;120.63;73.15;;;;;;;7.60;100.00;101556.78;5024390;28;20048;-81
2021/04/19 06:01:12;;;;;;;109.97;65.07;;;;;;;7.59;100.00;101563.06;5025978;28;20040;-83
2021/04/19 06:03:50;;;;;;;119.88;73.68;;;;;;;7.64;100.00;101564.41;5028931;28;20049;-84
2021/04/19 06:06:54;;;;;;;117.53;73.35;;;;;;;7.69;100.00;101566.69;5048411;28;20049;-83
2021/04/19 06:10:02;;;;;;;114.13;69.70;;;;;;;7.71;100.00;101564.75;5021419;28;20524;-82
2021/04/19 06:12:31;;;;;;;108.05;63.40;;;;;;;7.67;100.00;101566.81;5027098;28;20051;-83
2021/04/19 06:15:02;;;;;;;105.72;65.20;;;;;;;7.72;100.00;101568.28;5034413;28;20107;-80
2021/04/19 06:17:28;;;;;;;98.47;61.20;;;;;;;7.76;100.00;101573.22;5016852;28;20033;-80
2021/04/19 06:19:54;;;;;;;101.53;62.20;;;;;;;7.84;100.00;101572.59;5056328;28;20503;-79
2021/04/19 06:22:20;;;;;;;98.88;62.63;;;;;;;7.97;100.00;101572.41;5030684;28;20120;-82
2021/04/19 06:24:46;;;;;;;87.03;57.25;;;;;;;8.00;100.00;101567.69;5052391;28;20048;-82
2021/04/19 06:27:30;;;;;;;85.22;56.03;;;;;;;8.07;100.00;101563.50;5052075;28;20163;-79
2021/04/19 06:29:55;;;;;;;82.95;55.20;;;;;;;8.11;100.00;101556.94;5028304;28;20049;-83
2021/04/19 06:32:22;;;;;;;76.05;52.58;;;;;;;8.14;100.00;101569.16;5048833;28;20040;-82
2021/04/19 06:34:49;;;;;;;78.10;51.63;;;;;;;8.19;100.00;101568.78;5029702;28;20120;-83
2021/04/19 06:37:14;;;;;;;74.20;48.60;;;;;;;8.20;100.00;101576.69;5048094;28;20029;-80
2021/04/19 06:39:40;;;;;;;75.40;51.30;;;;;;;8.21;100.00;101567.69;5032398;28;20445;-81
2021/04/19 06:42:06;;;;;;;67.07;46.95;;;;;;;8.28;100.00;101566.16;5032580;28;20036;-81
2021/04/19 06:44:31;;;;;;;66.30;46.00;;;;;;;8.29;100.00;101565.22;5026087;28;20080;-81
2021/04/19 06:47:00;;;;;;;59.78;42.22;;;;;;;8.32;100.00;101572.97;5051772;28;20064;-80
2021/04/19 06:49:26;;;;;;;61.92;43.42;;;;;;;8.35;100.00;101574.53;5039450;28;20140;-83
2021/04/19 06:51:56;;;;;;;56.45;40.67;;;;;;;8.43;100.00;101568.53;5045683;28;20458;-82
2021/04/19 06:54:23;;;;;;;53.88;39.00;;;;;;;8.49;100.00;101576.06;5041930;28;20059;-82
2021/04/19 06:56:50;;;;;;;55.17;40.03;;;;;;;8.57;100.00;101569.09;5054444;28;20041;-81
2021/04/19 06:59:19;;;;;;;56.63;40.78;;;;;;;8.72;100.00;101564.22;5018029;28;20091;-81
2021/04/19 07:01:45;;;;;;;;;;;;;;;8.83;100.00;101568.63;5046285;28;20041;-81
2021/04/19 07:04:15;;;;;;;51.80;37.67;;;;;;;8.92;100.00;101570.50;5051257;28;19925;-82
2021/04/19 07:06:41;;;;;;;41.88;30.67;;;;;;;9.03;100.00;101567.75;5045530;28;20049;-80
2021/04/19 07:09:26;;;;;;;36.53;26.58;;;;;;;9.04;100.00;101573.94;5049197;28;20041;-80
2021/04/19 07:11:57;;;;;;;30.02;23.67;;;;;;;9.08;100.00;101570.00;5026592;28;20099;-80
2021/04/19 07:14:23;;;;;;;28.90;23.98;;;;;;;9.13;100.00;101564.25;5032994;28;20098;-80
2021/04/19 07:16:49;;;;;;;30.05;23.75;;;;;;;9.23;100.00;101560.59;5016703;28;20052;-82
2021/04/19 07:19:16;;;;;;;27.80;23.25;;;;;;;9.34;100.00;101566.84;5050558;28;20044;-81
2021/04/19 07:21:41;;;;;;;26.48;21.10;;;;;;;9.39;100.00;101562.75;5041590;28;20072;-82
2021/04/19 07:24:08;;;;;;;27.50;21.60;;;;;;;9.37;100.00;101566.56;5046019;28;20064;-83
2021/04/19 07:26:33;;;;;;;24.65;20.58;;;;;;;9.43;100.00;101563.31;5024936;28;20075;-80
2021/04/19 07:28:59;;;;;;;25.25;20.48;;;;;;;9.39;100.00;101575.31;5014469;28;20037;-81
2021/04/19 07:31:25;;;;;;;22.88;20.23;;;;;;;9.42;100.00;101575.03;5045435;28;20033;-83
2021/04/19 07:33:50;;;;;;;24.02;19.90;;;;;;;9.45;100.00;101577.44;5012655;28;20052;-83
2021/04/19 07:36:27;;;;;;;22.05;16.80;;;;;;;9.49;100.00;101571.69;5032296;28;20383;-81
2021/04/19 07:38:54;;;;;;;18.80;16.27;;;;;;;9.60;100.00;101567.16;5046771;28;20051;-85
2021/04/19 07:41:20;;;;;;;16.67;14.13;;;;;;;9.77;100.00;101571.84;5050028;28;20127;-84
2021/04/19 07:43:47;;;;;;;11.25;9.07;;;;;;;9.78;98.12;101567.31;5029892;28;20176;-82
2021/04/19 07:46:16;;;;;;;11.48;10.02;;;;;;;9.90;98.52;101567.06;5052149;28;20041;-81
2021/04/19 07:48:46;;;;;;;10.02;8.48;;;;;;;10.08;96.99;101575.22;5024891;28;20116;-82
2021/04/19 07:51:36;;;;;;;10.32;9.07;;;;;;;10.17;94.13;101576.22;5032107;28;20037;-83
2021/04/19 07:54:23;;;;;;;9.60;7.97;;;;;;;10.34;94.07;101580.03;5029151;28;20041;-84
2021/04/19 07:56:51;;;;;;;10.00;8.45;;;;;;;10.29;92.24;101577.78;5016471;28;20068;-80
2021/04/19 07:59:29;;;;;;;10.27;9.00;;;;;;;10.25;91.78;101576.34;5045793;28;20040;-82
2021/04/19 08:02:09;;;;;;;12.10;9.77;;;;;;;10.42;94.26;101576.66;5014294;28;20044;-84
2021/04/19 08:04:45;;;;;;;11.82;9.63;;;;;;;10.48;93.23;101576.91;5050178;28;20036;-82
2021/04/19 08:07:18;;;;;;;12.00;8.77;;;;;;;10.49;92.47;101581.28;5046066;28;20037;-80
2021/04/19 08:09:58;;;;;;;10.90;8.23;;;;;;;10.47;92.53;101579.72;5049791;28;20056;-83
2021/04/19 08:12:38;;;;;;;10.48;8.23;;;;;;;10.52;92.22;101582.81;5042069;28;20037;-84
2021/04/19 08:15:08;;;;;;;9.23;7.82;;;;;;;10.50;92.09;101580.31;5028048;28;20383;-81
2021/04/19 08:17:34;;;;;;;10.57;9.45;;;;;;;10.65;92.35;101578.00;5040332;28;20564;-80
2021/04/19 08:20:00;;;;;;;12.20;10.52;;;;;;;10.77;92.54;101573.31;5054713;28;20378;-83
2021/04/19 08:22:29;;;;;;;13.25;11.55;;;;;;;10.81;92.59;101582.75;5042184;28;20025;-83
2021/04/19 08:25:18;;;;;;;14.18;11.50;;;;;;;10.86;93.09;101585.00;5049238;28;20044;-81
2021/04/19 08:27:46;;;;;;;14.63;11.73;;;;;;;10.88;93.23;101573.13;5040453;28;20044;-81
2021/04/19 08:30:15;;;;;;;13.35;11.02;;;;;;;10.93;92.69;101580.72;5049712;28;20045;-80
2021/04/19 08:32:44;;;;;;;13.23;11.88;;;;;;;10.94;90.12;101577.91;5044085;28;20041;-82
2021/04/19 08:35:10;;;;;;;13.63;12.10;;;;;;;11.02;91.68;101580.69;5042865;28;20029;-81
2021/04/19 08:37:36;;;;;;;12.32;10.75;;;;;;;11.03;89.74;101592.28;5041537;28;20051;-83
2021/04/19 08:40:03;;;;;;;11.88;10.32;;;;;;;10.94;90.01;101588.66;5030682;28;20383;-83
2021/04/19 08:42:31;;;;;;;14.60;11.45;;;;;;;10.95;90.14;101584.13;5042310;28;20048;-83
2021/04/19 08:44:59;;;;;;;13.32;11.30;;;;;;;10.97;90.30;101576.75;5031155;28;20481;-81
2021/04/19 08:47:28;;;;;;;13.43;9.60;;;;;;;11.03;90.02;101586.91;5044947;28;20105;-80
2021/04/19 08:49:54;;;;;;;;;;;;;;;11.07;86.83;101588.28;5047668;28;20036;-84
2021/04/19 08:52:20;;;;;;;11.18;9.40;;;;;;;11.03;87.05;101593.13;5040109;28;19913;-81
2021/04/19 08:54:46;;;;;;;12.68;9.75;;;;;;;11.06;86.77;101582.09;5031503;28;20056;-81
2021/04/19 08:57:12;;;;;;;13.18;11.35;;;;;;;11.18;87.85;101589.94;5022573;28;20044;-83
2021/04/19 08:59:39;;;;;;;12.15;10.85;;;;;;;11.12;86.70;101591.38;5029418;28;20041;-81
2021/04/19 09:02:06;;;;;;;12.90;11.45;;;;;;;11.18;89.31;101589.94;5039500;28;20048;-83
2021/04/19 09:04:32;;;;;;;12.95;11.20;;;;;;;11.20;87.97;101598.72;5033872;28;20048;-83
2021/04/19 09:06:58;;;;;;;14.32;11.82;;;;;;;11.22;86.27;101596.72;5036888;28;20041;-82
2021/04/19 09:09:42;;;;;;;16.38;12.27;;;;;;;11.16;86.44;101589.25;5025192;28;20986;-82
2021/04/19 09:12:10;;;;;;;15.13;12.57;;;;;;;11.13;86.30;101600.28;5026946;28;20029;-83
2021/04/19 09:14:42;;;;;;;18.92;12.82;;;;;;;11.19;86.17;101603.25;5048522;28;20389;-81
2021/04/19 09:17:08;;;;;;;15.63;12.95;;;;;;;11.32;88.20;101599.38;5054930;28;20096;-82
2021/04/19 09:19:39;;;;;;;15.40;13.80;;;;;;;11.47;85.74;101589.78;5025309;28;20045;-81
2021/04/19 09:22:09;;;;;;;16.20;13.70;;;;;;;11.77;86.89;101588.63;5050294;28;20060;-81
2021/04/19 09:24:52;;;;;;;16.40;13.43;;;;;;;12.05;83.66;101588.56;5031329;28;20048;-80
2021/04/19 09:27:44;;;;;;;15.60;12.43;;;;;;;12.18;82.10;101589.03;5038902;28;20513;-82
2021/04/19 09:30:26;;;;;;;15.32;13.73;;;;;;;12.40;84.18;101580.47;5032546;28;20051;-80
2021/04/19 09:33:06;;;;;;;16.00;13.98;;;;;;;12.55;82.75;101579.88;5020141;28;20394;-83
2021/04/19 09:38:14;;;;;;;16.08;14.30;;;;;;;12.68;82.89;101582.97;5051829;28;20041;-82
2021/04/19 09:40:50;;;;;;;16.00;14.30;;;;;;;12.78;82.04;101581.03;5010159;28;20048;-82
2021/04/19 09:43:32;;;;;;;14.77;13.02;;;;;;;12.85;79.07;101579.38;5049961;28;20444;-81
2021/04/19 09:46:25;;;;;;;13.32;10.70;;;;;;;13.04;78.06;101572.91;5034533;28;20045;-82
2021/04/19 09:48:53;;;;;;;11.60;8.73;;;;;;;13.14;74.71;101574.63;5040148;28;20098;-82
2021/04/19 09:51:23;;;;;;;10.95;9.40;;;;;;;13.13;73.95;101579.19;5045920;28;20033;-82
2021/04/19 09:54:04;;;;;;;12.93;10.77;;;;;;;13.01;75.33;101581.31;5046071;28;20045;-83
2021/04/19 09:56:43;;;;;;;10.40;9.15;;;;;;;12.96;76.70;101577.44;5050928;28;20051;-80
2021/04/19 09:59:20;;;;;;;13.35;10.45;;;;;;;12.98;74.12;101575.44;5041898;28;20371;-81
2021/04/19 10:01:49;;;;;;;11.55;10.35;;;;;;;12.95;75.95;101571.19;5051061;28;20041;-82
2021/04/19 10:04:14;;;;;;;15.40;12.37;;;;;;;12.83;77.15;101580.53;5030512;28;20155;-82
2021/04/19 10:06:45;;;;;;;13.80;11.88;;;;;;;12.73;76.84;101577.13;5041265;28;20132;-82
2021/04/19 10:09:15;;;;;;;14.23;11.02;;;;;;;12.61;76.68;101579.25;5036214;28;20045;-81
2021/04/19 10:11:45;;;;;;;17.15;14.50;;;;;;;12.60;78.09;101578.41;5032159;28;20526;-83
2021/04/19 10:14:13;;;;;;;15.82;13.73;;;;;;;12.54;79.48;101573.63;5006696;28;20526;-82
2021/04/19 10:16:41;;;;;;;17.10;13.93;;;;;;;12.58;79.17;101569.63;5031197;28;20048;-83
2021/04/19 10:19:06;;;;;;;16.95;14.80;;;;;;;12.63;78.36;101571.88;5040829;28;20111;-81
2021/04/19 10:21:32;;;;;;;17.48;14.20;;;;;;;12.71;80.29;101569.19;5036778;28;20033;-82
2021/04/19 10:23:59;;;;;;;17.38;14.82;;;;;;;12.75;78.71;101567.06;5030855;28;20045;-85
2021/04/19 10:26:40;;;;;;;19.70;15.32;;;;;;;12.65;78.92;101561.75;5031062;28;20060;-83
2021/04/19 10:29:13;;;;;;;16.98;14.73;;;;;;;12.60;78.99;101570.34;4995773;28;20045;-81
2021/04/19 10:31:46;;;;;;;19.30;14.68;;;;;;;12.64;78.85;101574.38;5043609;28;20045;-82
2021/04/19 10:34:12;;;;;;;18.05;14.93;;;;;;;12.64;78.35;101568.16;5030616;28;20053;-81
2021/04/19 10:36:54;;;;;;;16.77;14.63;;;;;;;12.80;79.56;101562.88;5046980;28;20045;-82
2021/04/19 10:39:22;;;;;;;16.00;14.02;;;;;;;12.96;78.05;101558.56;5027106;28;20049;-80
2021/04/19 10:41:50;;;;;;;15.80;14.00;;;;;;;13.11;76.61;101562.31;5047507;28;20041;-81
2021/04/19 10:44:17;;;;;;;15.20;13.27;;;;;;;13.08;76.55;101554.56;5028200;28;20466;-82
2021/04/19 10:46:44;;;;;;;16.52;14.73;;;;;;;13.03;77.95;101562.28;5037866;28;20093;-81
2021/04/19 10:49:24;;;;;;;17.70;14.60;;;;;;;13.28;77.47;101569.50;5012211;28;20049;-84
2021/04/19 10:51:55;;;;;;;16.92;14.50;;;;;;;13.26;76.07;101558.06;5045377;28;22321;-82
2021/04/19 10:54:31;;;;;;;19.80;16.30;;;;;;;13.25;77.16;101561.75;5041308;28;20033;-85
2021/04/19 10:56:57;;;;;;;18.75;16.13;;;;;;;13.22;77.00;101555.81;5025046;28;20047;-84
2021/04/19 10:59:24;;;;;;;19.77;15.55;;;;;;;13.23;77.20;101552.94;5044666;28;20071;-81
2021/04/19 11:02:02;;;;;;;17.50;14.40;;;;;;;13.21;76.03;101554.97;5006442;28;20086;-82
2021/04/19 11:04:28;;;;;;;17.77;14.90;;;;;;;13.27;76.74;101548.97;5025363;28;20079;-81
2021/04/19 11:06:56;;;;;;;17.23;14.98;;;;;;;13.28;76.06;101550.63;5022382;28;20052;-83
2021/04/19 11:09:27;;;;;;;17.33;14.88;;;;;;;13.20;75.19;101547.88;5024170;28;20451;-82
2021/04/19 11:11:53;;;;;;;15.75;13.43;;;;;;;13.21;74.36;101549.59;5040734;28;20136;-83
2021/04/19 11:14:33;;;;;;;17.55;14.23;;;;;;;13.16;74.28;101546.53;5026883;28;20128;-82
2021/04/19 11:17:06;;;;;;;16.20;13.38;;;;;;;13.14;74.72;101547.69;5030290;28;20044;-84
2021/04/19 11:19:34;;;;;;;15.43;13.65;;;;;;;13.16;73.80;101543.00;5050865;28;20124;-84
2021/04/19 11:22:26;;;;;;;17.43;13.70;;;;;;;13.24;74.27;101543.03;5051626;28;20080;-85
2021/04/19 11:24:53;;;;;;;17.95;14.43;;;;;;;13.34;74.10;101538.34;5032499;28;20045;-85
2021/04/19 11:27:23;;;;;;;18.15;14.80;;;;;;;13.44;75.03;101549.00;5050793;28;20071;-82
2021/04/19 11:29:51;;;;;;;16.85;13.80;;;;;;;13.46;73.55;101544.28;5046028;28;20385;-85